createdAt,value
2022-09-09T00:01:13.855Z,99.90
2022-09-09T00:07:10.719Z,99.90
2022-09-09T00:12:50.122Z,99.90
2022-09-09T00:18:37.228Z,99.90
2022-09-09T00:24:00.136Z,99.90
2022-09-09T00:29:25.281Z,99.90
2022-09-09T00:35:13.567Z,99.90
2022-09-09T00:40:42.036Z,99.90
2022-09-09T00:46:19.293Z,99.90
2022-09-09T00:52:05.607Z,99.90
2022-09-09T00:57:35.953Z,99.90
2022-09-09T01:03:34.436Z,99.90
2022-09-09T01:09:13.488Z,99.90
2022-09-09T01:14:35.702Z,99.90
2022-09-09T01:20:18.205Z,99.90
2022-09-09T01:25:44.692Z,99.90
2022-09-09T01:31:43.013Z,99.90
2022-09-09T01:37:13.055Z,99.90
2022-09-09T01:42:35.983Z,99.90
2022-09-09T01:47:59.145Z,99.90
2022-09-09T01:53:44.482Z,99.90
2022-09-09T01:59:19.973Z,99.90
2022-09-09T02:04:49.979Z,99.90
2022-09-09T02:10:33.867Z,99.90
2022-09-09T02:16:09.916Z,99.90
2022-09-09T02:21:36.036Z,99.90
2022-09-09T02:27:01.605Z,99.90
2022-09-09T02:32:25.771Z,99.90
2022-09-09T02:37:52.810Z,99.90
2022-09-09T02:43:17.494Z,99.90
2022-09-09T02:48:50.930Z,99.90
2022-09-09T02:54:31.956Z,99.90
2022-09-09T02:59:59.172Z,99.90
2022-09-09T03:05:22.116Z,99.90
2022-09-09T03:10:44.640Z,99.90
2022-09-09T03:16:09.459Z,99.90
2022-09-09T03:21:37.687Z,99.90
2022-09-09T03:26:59.912Z,99.90
2022-09-09T03:32:23.484Z,99.90
2022-09-09T03:37:45.874Z,99.90
2022-09-09T03:43:10.805Z,99.90
2022-09-09T03:48:33.205Z,99.90
2022-09-09T03:53:57.824Z,99.90
2022-09-09T03:59:22.259Z,99.90
2022-09-09T04:04:44.507Z,99.90
2022-09-09T04:10:07.385Z,99.90
2022-09-09T04:15:30.023Z,99.90
2022-09-09T04:20:53.765Z,99.90
2022-09-09T04:26:19.567Z,99.90
2022-09-09T04:31:43.145Z,99.90
2022-09-09T04:37:05.623Z,99.90
2022-09-09T04:42:28.768Z,99.90
2022-09-09T04:47:51.520Z,99.90
2022-09-09T04:53:13.924Z,99.90
2022-09-09T04:58:36.922Z,99.90
2022-09-09T05:04:00.878Z,99.90
2022-09-09T05:09:23.031Z,99.90
2022-09-09T05:14:47.371Z,99.90
2022-09-09T05:20:11.886Z,99.90
2022-09-09T05:25:37.079Z,99.90
2022-09-09T05:31:05.839Z,99.90
2022-09-09T05:36:29.897Z,99.90
2022-09-09T05:41:52.782Z,99.90
2022-09-09T05:47:16.243Z,99.90
2022-09-09T05:52:39.152Z,99.90
2022-09-09T05:58:02.528Z,99.90
2022-09-09T06:03:24.825Z,99.90
2022-09-09T06:08:49.362Z,99.90
2022-09-09T06:14:12.527Z,99.90
2022-09-09T06:19:35.816Z,99.90
2022-09-09T06:24:58.122Z,99.90
2022-09-09T06:30:20.390Z,99.90
2022-09-09T06:35:42.725Z,99.90
2022-09-09T06:41:06.728Z,99.90
2022-09-09T06:46:32.210Z,99.90
2022-09-09T06:51:56.623Z,99.90
2022-09-09T07:03:09.071Z,99.90
2022-09-09T07:09:30.415Z,99.90
2022-09-09T07:14:53.485Z,99.90
2022-09-09T07:20:17.810Z,99.90
2022-09-09T07:25:47.308Z,99.90
2022-09-09T07:31:21.890Z,99.90
2022-09-09T07:36:45.642Z,99.90
2022-09-09T07:42:12.705Z,99.90
2022-09-09T07:47:36.908Z,99.90
2022-09-09T07:53:01.071Z,99.90
2022-09-09T07:58:25.201Z,99.90
2022-09-09T08:03:56.679Z,99.90
2022-09-09T08:09:20.905Z,99.90
2022-09-09T08:14:45.170Z,99.90
2022-09-09T08:20:08.448Z,99.90
2022-09-09T08:25:32.238Z,99.90
2022-09-09T08:30:55.557Z,99.90
2022-09-09T08:36:24.523Z,99.90
2022-09-09T08:42:01.940Z,99.90
2022-09-09T08:47:34.038Z,99.90
2022-09-09T08:53:24.428Z,99.90
2022-09-09T08:58:54.550Z,99.90
2022-09-09T09:04:28.457Z,99.90
2022-09-09T09:10:40.449Z,99.90
2022-09-09T09:16:33.370Z,99.90
2022-09-09T09:22:17.816Z,99.90
2022-09-09T09:28:07.535Z,99.90
2022-09-09T09:33:55.051Z,99.90
2022-09-09T09:45:35.194Z,99.10
2022-09-09T09:51:11.650Z,99.90
2022-09-09T09:56:35.117Z,97.90
2022-09-09T10:02:25.695Z,87.50
2022-09-09T10:08:11.586Z,88.50
2022-09-09T10:13:46.148Z,90.40
2022-09-09T10:19:17.469Z,95.90
2022-09-09T10:25:12.736Z,99.90
2022-09-09T10:30:54.955Z,91.80
2022-09-09T10:36:27.968Z,90.90
2022-09-09T10:42:10.491Z,91.30
2022-09-09T10:47:58.656Z,91.40
2022-09-09T10:53:38.804Z,95.20
2022-09-09T10:59:08.772Z,99.30
2022-09-09T11:04:43.919Z,97.40
2022-09-09T11:10:48.462Z,94.30
2022-09-09T11:16:11.964Z,94.40
2022-09-09T11:21:46.280Z,99.90
2022-09-09T11:27:15.540Z,96.70
2022-09-09T11:33:05.603Z,94.20
2022-09-09T11:38:49.772Z,92.50
2022-09-09T11:44:18.676Z,90.80
2022-09-09T11:49:44.925Z,86.90
2022-09-09T11:55:25.200Z,81.90
2022-09-09T12:00:53.082Z,85.40
2022-09-09T12:06:21.587Z,84.10
2022-09-09T12:11:44.361Z,87.20
2022-09-09T12:17:16.208Z,87.50
2022-09-09T12:23:01.205Z,89.60
2022-09-09T12:28:45.492Z,86.50
2022-09-09T12:34:17.063Z,94.40
2022-09-09T12:40:01.486Z,92.10
2022-09-09T12:45:27.266Z,91.60
2022-09-09T12:50:53.104Z,92.20
2022-09-09T12:56:32.047Z,95.70
2022-09-09T13:01:59.223Z,97.20
2022-09-09T13:07:22.902Z,95.20
2022-09-09T13:12:45.571Z,97.30
2022-09-09T13:18:14.370Z,93.50
2022-09-09T13:23:38.665Z,90.00
2022-09-09T13:29:19.976Z,94.10
2022-09-09T13:34:55.535Z,93.90
2022-09-09T13:40:23.631Z,97.00
2022-09-09T13:45:55.226Z,95.50
2022-09-09T13:51:36.126Z,96.10
2022-09-09T13:56:58.188Z,97.30
2022-09-09T14:02:22.357Z,97.50
2022-09-09T14:07:46.399Z,94.50
2022-09-09T14:13:10.374Z,97.40
2022-09-09T14:18:35.025Z,97.50
2022-09-09T14:23:59.039Z,99.90
2022-09-09T14:29:21.321Z,98.10
2022-09-09T14:34:43.426Z,99.90
2022-09-09T14:40:06.164Z,99.90
2022-09-09T14:45:28.716Z,99.90
2022-09-09T14:50:50.828Z,99.90
2022-09-09T14:56:19.203Z,99.90
2022-09-09T15:01:41.430Z,99.90
2022-09-09T15:07:04.158Z,99.90
2022-09-09T15:12:26.176Z,99.90
2022-09-09T15:17:48.517Z,99.90
2022-09-09T15:23:11.203Z,99.90
2022-09-09T15:28:38.559Z,99.90
2022-09-09T15:34:03.031Z,99.90
2022-09-09T15:39:25.155Z,99.90
2022-09-09T15:44:47.287Z,99.90
2022-09-09T15:50:09.435Z,99.90
2022-09-09T15:55:31.545Z,99.90
2022-09-09T16:00:53.926Z,99.90
2022-09-09T16:06:16.638Z,99.90
2022-09-09T16:11:39.867Z,99.90
2022-09-09T16:17:02.442Z,99.90
2022-09-09T16:22:25.535Z,99.90
2022-09-09T16:27:47.651Z,99.90
2022-09-09T16:33:09.765Z,99.90
2022-09-09T16:38:31.844Z,99.90
2022-09-09T16:43:56.312Z,99.90
2022-09-09T16:49:18.644Z,99.90
2022-09-09T16:54:43.728Z,99.90
2022-09-09T17:00:08.011Z,99.90
2022-09-09T17:05:30.292Z,99.90
2022-09-09T17:10:52.385Z,99.90
2022-09-09T17:16:17.121Z,99.90
2022-09-09T17:21:54.598Z,99.90
2022-09-09T17:27:21.847Z,99.90
2022-09-09T17:32:43.928Z,99.90
2022-09-09T17:38:06.693Z,99.90
2022-09-09T17:43:28.789Z,99.90
2022-09-09T17:48:54.696Z,99.90
2022-09-09T17:54:20.914Z,99.90
2022-09-09T17:59:43.081Z,99.90
2022-09-09T18:05:05.630Z,99.90
2022-09-09T18:10:27.927Z,99.90
2022-09-09T18:15:50.871Z,99.90
2022-09-09T18:21:13.220Z,99.90
2022-09-09T18:26:36.188Z,99.90
2022-09-09T18:31:58.351Z,99.90
2022-09-09T18:37:20.438Z,99.90
2022-09-09T18:42:42.898Z,99.90
2022-09-09T18:48:05.875Z,99.90
2022-09-09T18:53:28.682Z,99.90
2022-09-09T18:58:55.769Z,99.90
2022-09-09T19:04:19.867Z,99.90
2022-09-09T19:09:42.271Z,99.90
2022-09-09T19:15:05.431Z,99.90
2022-09-09T19:20:27.920Z,99.90
2022-09-09T19:25:50.454Z,99.90
2022-09-09T19:31:15.650Z,99.90
2022-09-09T19:36:38.575Z,99.90
2022-09-09T19:42:01.181Z,99.90
2022-09-09T19:47:24.077Z,99.90
2022-09-09T19:52:46.162Z,99.90
2022-09-09T19:58:08.261Z,99.90
2022-09-09T20:03:30.958Z,99.90
2022-09-09T20:08:54.220Z,99.90
2022-09-09T20:14:17.176Z,99.90
2022-09-09T20:19:40.021Z,99.90
2022-09-09T20:25:02.838Z,99.90
2022-09-09T20:30:24.988Z,99.90
2022-09-09T20:35:47.689Z,99.90
2022-09-09T20:41:11.648Z,99.90
2022-09-09T20:46:36.554Z,99.90
2022-09-09T20:51:58.843Z,99.90
2022-09-09T20:57:23.162Z,99.90
2022-09-09T21:02:45.412Z,99.90
2022-09-09T21:08:07.479Z,99.90
2022-09-09T21:13:34.795Z,99.90
2022-09-09T21:18:58.632Z,99.90
2022-09-09T21:24:20.717Z,99.90
2022-09-09T21:29:43.057Z,99.90
2022-09-09T21:35:06.981Z,99.90
2022-09-09T21:40:29.627Z,99.90
2022-09-09T21:45:51.765Z,99.90
2022-09-09T21:51:15.910Z,99.90
2022-09-09T21:56:38.000Z,99.90
2022-09-09T22:02:00.228Z,99.90
2022-09-09T22:07:22.589Z,99.90
2022-09-09T22:12:44.683Z,99.90
2022-09-09T22:18:06.808Z,99.90
2022-09-09T22:23:31.556Z,99.90
2022-09-09T22:28:54.004Z,99.90
2022-09-09T22:34:16.197Z,99.90
2022-09-09T22:39:38.460Z,99.90
2022-09-09T22:45:00.778Z,99.90
2022-09-09T22:50:22.903Z,99.90
2022-09-09T22:56:00.320Z,99.90
2022-09-09T23:01:24.093Z,99.90
2022-09-09T23:06:46.857Z,99.90
2022-09-09T23:12:09.558Z,99.90
2022-09-09T23:17:34.316Z,99.90
2022-09-09T23:22:56.403Z,99.90
2022-09-09T23:28:18.494Z,99.90
2022-09-09T23:33:41.740Z,99.90
2022-09-09T23:39:05.947Z,99.90
2022-09-09T23:44:28.118Z,99.90
2022-09-09T23:49:51.466Z,99.90
2022-09-09T23:55:13.590Z,99.90
